Terminal Aerodrome Forecast
Issued by NWS

Home | Current Version | Previous Version | Text Only | Print | Product List | Glossary Off
Versions: 1 2 3 4 5 6 7 8 9 10 11 12 13 14 15 16 17 18 19 20 21

000
FTUS43 KBIS 222320
TAFMOT
TAF
KMOT 222320Z 2300/2324 09011G18KT P6SM SCT250
     FM230300 11009KT P6SM VCTS BKN100CB
     FM230900 14009KT P6SM -SHRA VCTS BKN090CB
     FM231500 17010G21KT P6SM VCTS BKN040CB
     FM231800 27016G22KT P6SM SCT120=

USA.gov is the U.S. government's official web portal to all federal, state and local government web resources and services.